sensor_id;sensor_type;location;lat;lon;timestamp;P1;durP1;ratioP1;P2;durP2;ratioP2
72755;SDS011;60881;55.002;73.232;2022-07-22T00:00:58;12.38;;;3.08;;
72755;SDS011;60881;55.002;73.232;2022-07-22T00:03:26;7.10;;;3.30;;
72755;SDS011;60881;55.002;73.232;2022-07-22T00:05:53;12.35;;;2.80;;
72755;SDS011;60881;55.002;73.232;2022-07-22T00:08:19;15.60;;;2.85;;
72755;SDS011;60881;55.002;73.232;2022-07-22T00:10:46;8.57;;;2.80;;
72755;SDS011;60881;55.002;73.232;2022-07-22T00:13:12;6.78;;;2.80;;
72755;SDS011;60881;55.002;73.232;2022-07-22T00:15:39;9.55;;;3.03;;
72755;SDS011;60881;55.002;73.232;2022-07-22T00:18:06;6.03;;;2.85;;
72755;SDS011;60881;55.002;73.232;2022-07-22T00:20:32;11.75;;;3.60;;
72755;SDS011;60881;55.002;73.232;2022-07-22T00:22:58;9.02;;;3.20;;
72755;SDS011;60881;55.002;73.232;2022-07-22T00:25:25;6.28;;;2.95;;
72755;SDS011;60881;55.002;73.232;2022-07-22T00:28:03;4.05;;;2.80;;
72755;SDS011;60881;55.002;73.232;2022-07-22T00:30:31;4.82;;;2.53;;
72755;SDS011;60881;55.002;73.232;2022-07-22T00:32:57;8.10;;;2.83;;
72755;SDS011;60881;55.002;73.232;2022-07-22T00:35:25;5.32;;;2.88;;
72755;SDS011;60881;55.002;73.232;2022-07-22T00:37:53;10.43;;;2.83;;
72755;SDS011;60881;55.002;73.232;2022-07-22T00:40:19;4.40;;;2.80;;
72755;SDS011;60881;55.002;73.232;2022-07-22T00:42:46;10.80;;;2.88;;
72755;SDS011;60881;55.002;73.232;2022-07-22T00:45:14;7.90;;;2.60;;
72755;SDS011;60881;55.002;73.232;2022-07-22T00:47:41;5.57;;;2.83;;
72755;SDS011;60881;55.002;73.232;2022-07-22T00:50:08;4.75;;;2.70;;
72755;SDS011;60881;55.002;73.232;2022-07-22T00:52:35;7.93;;;2.65;;
72755;SDS011;60881;55.002;73.232;2022-07-22T00:55:02;6.88;;;3.30;;
72755;SDS011;60881;55.002;73.232;2022-07-22T00:57:30;6.95;;;3.08;;
72755;SDS011;60881;55.002;73.232;2022-07-22T01:00:04;17.45;;;3.22;;
72755;SDS011;60881;55.002;73.232;2022-07-22T01:02:35;11.27;;;2.80;;
72755;SDS011;60881;55.002;73.232;2022-07-22T01:05:04;11.80;;;3.45;;
72755;SDS011;60881;55.002;73.232;2022-07-22T01:07:32;10.60;;;3.22;;
72755;SDS011;60881;55.002;73.232;2022-07-22T01:09:59;4.70;;;3.00;;
72755;SDS011;60881;55.002;73.232;2022-07-22T01:12:27;9.95;;;3.28;;
72755;SDS011;60881;55.002;73.232;2022-07-22T01:14:53;3.95;;;2.88;;
72755;SDS011;60881;55.002;73.232;2022-07-22T01:17:20;6.63;;;3.20;;
72755;SDS011;60881;55.002;73.232;2022-07-22T01:19:47;5.85;;;3.38;;
72755;SDS011;60881;55.002;73.232;2022-07-22T01:22:16;7.70;;;4.13;;
72755;SDS011;60881;55.002;73.232;2022-07-22T01:24:42;11.00;;;4.80;;
72755;SDS011;60881;55.002;73.232;2022-07-22T01:27:09;13.68;;;4.47;;
72755;SDS011;60881;55.002;73.232;2022-07-22T01:29:36;10.30;;;4.47;;
72755;SDS011;60881;55.002;73.232;2022-07-22T01:32:03;8.95;;;3.65;;
72755;SDS011;60881;55.002;73.232;2022-07-22T01:34:34;8.02;;;3.40;;
72755;SDS011;60881;55.002;73.232;2022-07-22T01:37:01;6.88;;;2.75;;
72755;SDS011;60881;55.002;73.232;2022-07-22T01:39:27;9.98;;;3.00;;
72755;SDS011;60881;55.002;73.232;2022-07-22T01:41:54;9.85;;;2.80;;
72755;SDS011;60881;55.002;73.232;2022-07-22T01:44:21;7.47;;;2.22;;
72755;SDS011;60881;55.002;73.232;2022-07-22T01:46:48;7.60;;;2.47;;
72755;SDS011;60881;55.002;73.232;2022-07-22T01:49:16;3.67;;;2.60;;
72755;SDS011;60881;55.002;73.232;2022-07-22T01:51:43;6.53;;;2.55;;
72755;SDS011;60881;55.002;73.232;2022-07-22T01:54:10;7.78;;;2.83;;
72755;SDS011;60881;55.002;73.232;2022-07-22T01:56:38;7.75;;;2.60;;
72755;SDS011;60881;55.002;73.232;2022-07-22T01:59:04;13.60;;;2.65;;
72755;SDS011;60881;55.002;73.232;2022-07-22T02:01:32;5.45;;;2.60;;
72755;SDS011;60881;55.002;73.232;2022-07-22T02:04:00;8.02;;;2.83;;
72755;SDS011;60881;55.002;73.232;2022-07-22T02:06:29;4.22;;;2.30;;
72755;SDS011;60881;55.002;73.232;2022-07-22T02:08:57;4.25;;;2.30;;
72755;SDS011;60881;55.002;73.232;2022-07-22T02:11:38;4.60;;;2.20;;
72755;SDS011;60881;55.002;73.232;2022-07-22T02:14:06;8.25;;;2.30;;
72755;SDS011;60881;55.002;73.232;2022-07-22T02:16:38;6.55;;;2.15;;
72755;SDS011;60881;55.002;73.232;2022-07-22T02:19:05;3.97;;;2.03;;
72755;SDS011;60881;55.002;73.232;2022-07-22T02:21:32;5.70;;;2.10;;
72755;SDS011;60881;55.002;73.232;2022-07-22T02:24:00;7.10;;;2.15;;
72755;SDS011;60881;55.002;73.232;2022-07-22T02:26:26;4.18;;;2.25;;
72755;SDS011;60881;55.002;73.232;2022-07-22T02:28:53;6.63;;;1.90;;
72755;SDS011;60881;55.002;73.232;2022-07-22T02:31:19;15.63;;;2.30;;
72755;SDS011;60881;55.002;73.232;2022-07-22T02:33:47;2.72;;;2.15;;
72755;SDS011;60881;55.002;73.232;2022-07-22T02:36:13;2.80;;;1.90;;
72755;SDS011;60881;55.002;73.232;2022-07-22T02:38:52;2.22;;;1.90;;
72755;SDS011;60881;55.002;73.232;2022-07-22T02:41:19;6.22;;;2.10;;
72755;SDS011;60881;55.002;73.232;2022-07-22T02:43:52;2.38;;;2.15;;
72755;SDS011;60881;55.002;73.232;2022-07-22T02:46:21;5.22;;;2.53;;
72755;SDS011;60881;55.002;73.232;2022-07-22T02:48:48;6.07;;;2.35;;
72755;SDS011;60881;55.002;73.232;2022-07-22T02:51:17;4.75;;;2.47;;
72755;SDS011;60881;55.002;73.232;2022-07-22T02:53:54;4.07;;;2.83;;
72755;SDS011;60881;55.002;73.232;2022-07-22T02:56:21;7.13;;;3.10;;
72755;SDS011;60881;55.002;73.232;2022-07-22T02:58:52;5.13;;;2.70;;
72755;SDS011;60881;55.002;73.232;2022-07-22T03:01:21;8.73;;;3.10;;
72755;SDS011;60881;55.002;73.232;2022-07-22T03:03:53;6.65;;;3.17;;
72755;SDS011;60881;55.002;73.232;2022-07-22T03:06:20;11.65;;;3.25;;
72755;SDS011;60881;55.002;73.232;2022-07-22T03:09:07;7.20;;;3.60;;
72755;SDS011;60881;55.002;73.232;2022-07-22T03:11:35;7.18;;;3.33;;
72755;SDS011;60881;55.002;73.232;2022-07-22T03:14:03;6.88;;;3.38;;
72755;SDS011;60881;55.002;73.232;2022-07-22T03:16:30;5.90;;;3.60;;
72755;SDS011;60881;55.002;73.232;2022-07-22T03:18:57;5.40;;;3.40;;
72755;SDS011;60881;55.002;73.232;2022-07-22T03:21:23;5.57;;;3.50;;
72755;SDS011;60881;55.002;73.232;2022-07-22T03:23:52;4.97;;;3.20;;
72755;SDS011;60881;55.002;73.232;2022-07-22T03:26:21;13.35;;;3.33;;
72755;SDS011;60881;55.002;73.232;2022-07-22T03:28:59;6.35;;;3.80;;
72755;SDS011;60881;55.002;73.232;2022-07-22T03:31:25;10.85;;;3.88;;
72755;SDS011;60881;55.002;73.232;2022-07-22T03:33:53;4.75;;;3.70;;
72755;SDS011;60881;55.002;73.232;2022-07-22T03:36:20;7.50;;;3.55;;
72755;SDS011;60881;55.002;73.232;2022-07-22T03:38:50;5.03;;;3.53;;
72755;SDS011;60881;55.002;73.232;2022-07-22T03:41:16;5.65;;;3.60;;
72755;SDS011;60881;55.002;73.232;2022-07-22T03:43:44;7.72;;;3.55;;
72755;SDS011;60881;55.002;73.232;2022-07-22T03:46:10;6.30;;;3.47;;
72755;SDS011;60881;55.002;73.232;2022-07-22T03:48:38;6.70;;;3.60;;
72755;SDS011;60881;55.002;73.232;2022-07-22T03:51:05;6.75;;;3.70;;
72755;SDS011;60881;55.002;73.232;2022-07-22T03:53:33;13.85;;;3.63;;
72755;SDS011;60881;55.002;73.232;2022-07-22T03:56:02;6.70;;;3.88;;
72755;SDS011;60881;55.002;73.232;2022-07-22T03:58:31;9.50;;;3.85;;
72755;SDS011;60881;55.002;73.232;2022-07-22T04:00:59;7.47;;;3.90;;
72755;SDS011;60881;55.002;73.232;2022-07-22T04:03:25;6.75;;;3.70;;
72755;SDS011;60881;55.002;73.232;2022-07-22T04:05:52;12.35;;;3.90;;
72755;SDS011;60881;55.002;73.232;2022-07-22T04:08:33;5.10;;;3.92;;
72755;SDS011;60881;55.002;73.232;2022-07-22T04:11:01;6.40;;;4.13;;
72755;SDS011;60881;55.002;73.232;2022-07-22T04:13:28;14.82;;;4.10;;
72755;SDS011;60881;55.002;73.232;2022-07-22T04:15:57;11.48;;;4.00;;
72755;SDS011;60881;55.002;73.232;2022-07-22T04:18:25;8.80;;;3.95;;
72755;SDS011;60881;55.002;73.232;2022-07-22T04:20:52;6.60;;;3.80;;
72755;SDS011;60881;55.002;73.232;2022-07-22T04:23:21;7.25;;;4.22;;
72755;SDS011;60881;55.002;73.232;2022-07-22T04:25:54;6.68;;;3.85;;
72755;SDS011;60881;55.002;73.232;2022-07-22T04:28:21;5.10;;;3.58;;
72755;SDS011;60881;55.002;73.232;2022-07-22T04:30:54;13.23;;;3.67;;
72755;SDS011;60881;55.002;73.232;2022-07-22T04:33:21;5.03;;;3.60;;
72755;SDS011;60881;55.002;73.232;2022-07-22T04:35:49;7.43;;;3.72;;
72755;SDS011;60881;55.002;73.232;2022-07-22T04:38:22;5.80;;;3.60;;
72755;SDS011;60881;55.002;73.232;2022-07-22T04:41:01;5.72;;;3.70;;
72755;SDS011;60881;55.002;73.232;2022-07-22T04:43:28;7.22;;;3.65;;
72755;SDS011;60881;55.002;73.232;2022-07-22T04:45:55;5.88;;;3.63;;
72755;SDS011;60881;55.002;73.232;2022-07-22T04:48:24;7.60;;;3.70;;
72755;SDS011;60881;55.002;73.232;2022-07-22T04:51:01;5.32;;;3.30;;
72755;SDS011;60881;55.002;73.232;2022-07-22T04:53:29;10.35;;;3.65;;
72755;SDS011;60881;55.002;73.232;2022-07-22T04:55:56;6.35;;;3.47;;
72755;SDS011;60881;55.002;73.232;2022-07-22T04:58:24;5.32;;;3.60;;
72755;SDS011;60881;55.002;73.232;2022-07-22T05:00:51;6.53;;;3.50;;
72755;SDS011;60881;55.002;73.232;2022-07-22T05:03:18;5.00;;;3.35;;
72755;SDS011;60881;55.002;73.232;2022-07-22T05:05:45;6.25;;;3.28;;
72755;SDS011;60881;55.002;73.232;2022-07-22T05:08:13;11.00;;;3.60;;
72755;SDS011;60881;55.002;73.232;2022-07-22T05:10:51;9.10;;;3.60;;
72755;SDS011;60881;55.002;73.232;2022-07-22T05:13:17;8.73;;;3.60;;
72755;SDS011;60881;55.002;73.232;2022-07-22T05:15:44;5.95;;;3.10;;
72755;SDS011;60881;55.002;73.232;2022-07-22T05:18:11;5.28;;;3.30;;
72755;SDS011;60881;55.002;73.232;2022-07-22T05:20:40;6.00;;;3.00;;
72755;SDS011;60881;55.002;73.232;2022-07-22T05:23:07;9.02;;;3.13;;
72755;SDS011;60881;55.002;73.232;2022-07-22T05:25:35;10.27;;;2.97;;
72755;SDS011;60881;55.002;73.232;2022-07-22T05:28:03;11.80;;;3.50;;
72755;SDS011;60881;55.002;73.232;2022-07-22T05:30:45;6.25;;;3.08;;
72755;SDS011;60881;55.002;73.232;2022-07-22T05:33:13;9.13;;;3.38;;
72755;SDS011;60881;55.002;73.232;2022-07-22T05:35:59;8.15;;;3.25;;
72755;SDS011;60881;55.002;73.232;2022-07-22T05:38:32;8.27;;;3.22;;
72755;SDS011;60881;55.002;73.232;2022-07-22T05:40:59;13.52;;;3.10;;
72755;SDS011;60881;55.002;73.232;2022-07-22T05:43:26;4.68;;;2.80;;
72755;SDS011;60881;55.002;73.232;2022-07-22T05:45:53;11.30;;;3.47;;
72755;SDS011;60881;55.002;73.232;2022-07-22T05:48:21;10.23;;;3.30;;
72755;SDS011;60881;55.002;73.232;2022-07-22T05:50:48;11.45;;;3.10;;
72755;SDS011;60881;55.002;73.232;2022-07-22T05:53:15;9.07;;;3.03;;
72755;SDS011;60881;55.002;73.232;2022-07-22T05:55:42;11.90;;;3.28;;
72755;SDS011;60881;55.002;73.232;2022-07-22T05:58:09;7.07;;;3.22;;
72755;SDS011;60881;55.002;73.232;2022-07-22T06:00:36;6.28;;;3.00;;
72755;SDS011;60881;55.002;73.232;2022-07-22T06:03:05;6.85;;;3.10;;
72755;SDS011;60881;55.002;73.232;2022-07-22T06:05:33;5.95;;;2.88;;
72755;SDS011;60881;55.002;73.232;2022-07-22T06:08:06;6.88;;;3.05;;
72755;SDS011;60881;55.002;73.232;2022-07-22T06:10:45;6.03;;;3.53;;
72755;SDS011;60881;55.002;73.232;2022-07-22T06:13:15;6.57;;;3.30;;
72755;SDS011;60881;55.002;73.232;2022-07-22T06:15:42;7.70;;;3.30;;
72755;SDS011;60881;55.002;73.232;2022-07-22T06:18:11;5.50;;;3.10;;
72755;SDS011;60881;55.002;73.232;2022-07-22T06:20:38;11.20;;;3.35;;
72755;SDS011;60881;55.002;73.232;2022-07-22T06:23:04;9.77;;;3.15;;
72755;SDS011;60881;55.002;73.232;2022-07-22T06:25:33;5.95;;;3.08;;
72755;SDS011;60881;55.002;73.232;2022-07-22T06:28:01;7.82;;;2.95;;
72755;SDS011;60881;55.002;73.232;2022-07-22T06:30:27;5.75;;;3.08;;
72755;SDS011;60881;55.002;73.232;2022-07-22T06:32:57;7.53;;;3.05;;
72755;SDS011;60881;55.002;73.232;2022-07-22T06:35:24;10.10;;;3.10;;
72755;SDS011;60881;55.002;73.232;2022-07-22T06:37:57;6.13;;;3.17;;
72755;SDS011;60881;55.002;73.232;2022-07-22T06:40:25;9.88;;;3.17;;
72755;SDS011;60881;55.002;73.232;2022-07-22T06:43:00;12.27;;;3.53;;
72755;SDS011;60881;55.002;73.232;2022-07-22T06:45:52;5.90;;;3.10;;
72755;SDS011;60881;55.002;73.232;2022-07-22T06:48:25;10.13;;;3.05;;
72755;SDS011;60881;55.002;73.232;2022-07-22T06:50:54;10.57;;;3.60;;
72755;SDS011;60881;55.002;73.232;2022-07-22T06:53:20;6.90;;;2.80;;
72755;SDS011;60881;55.002;73.232;2022-07-22T06:55:48;16.13;;;3.00;;
72755;SDS011;60881;55.002;73.232;2022-07-22T06:58:14;12.10;;;3.00;;
72755;SDS011;60881;55.002;73.232;2022-07-22T07:00:41;5.18;;;2.97;;
72755;SDS011;60881;55.002;73.232;2022-07-22T07:03:30;9.68;;;3.20;;
72755;SDS011;60881;55.002;73.232;2022-07-22T07:06:10;7.15;;;2.70;;
72755;SDS011;60881;55.002;73.232;2022-07-22T07:08:58;7.28;;;2.75;;
72755;SDS011;60881;55.002;73.232;2022-07-22T07:11:34;8.43;;;2.85;;
72755;SDS011;60881;55.002;73.232;2022-07-22T07:14:05;7.90;;;2.72;;
72755;SDS011;60881;55.002;73.232;2022-07-22T07:16:32;6.80;;;2.90;;
72755;SDS011;60881;55.002;73.232;2022-07-22T07:19:02;7.07;;;3.17;;
72755;SDS011;60881;55.002;73.232;2022-07-22T07:21:28;5.75;;;3.08;;
72755;SDS011;60881;55.002;73.232;2022-07-22T07:23:55;7.47;;;2.80;;
72755;SDS011;60881;55.002;73.232;2022-07-22T07:26:24;9.85;;;2.90;;
72755;SDS011;60881;55.002;73.232;2022-07-22T07:28:50;6.43;;;2.78;;
72755;SDS011;60881;55.002;73.232;2022-07-22T07:31:38;5.70;;;2.60;;
72755;SDS011;60881;55.002;73.232;2022-07-22T07:34:11;10.75;;;3.38;;
72755;SDS011;60881;55.002;73.232;2022-07-22T07:36:38;16.38;;;3.08;;
72755;SDS011;60881;55.002;73.232;2022-07-22T07:39:05;5.32;;;2.65;;
72755;SDS011;60881;55.002;73.232;2022-07-22T07:41:31;5.65;;;2.30;;
72755;SDS011;60881;55.002;73.232;2022-07-22T07:43:58;7.65;;;2.55;;
72755;SDS011;60881;55.002;73.232;2022-07-22T07:46:25;9.85;;;2.20;;
72755;SDS011;60881;55.002;73.232;2022-07-22T07:48:53;5.32;;;2.63;;
72755;SDS011;60881;55.002;73.232;2022-07-22T07:51:21;7.03;;;2.65;;
72755;SDS011;60881;55.002;73.232;2022-07-22T07:53:47;7.28;;;2.58;;
72755;SDS011;60881;55.002;73.232;2022-07-22T07:56:14;5.47;;;2.55;;
72755;SDS011;60881;55.002;73.232;2022-07-22T07:58:40;10.23;;;2.85;;
72755;SDS011;60881;55.002;73.232;2022-07-22T08:01:07;6.07;;;3.03;;
72755;SDS011;60881;55.002;73.232;2022-07-22T08:03:34;6.57;;;3.00;;
72755;SDS011;60881;55.002;73.232;2022-07-22T08:06:02;14.57;;;2.80;;
72755;SDS011;60881;55.002;73.232;2022-07-22T08:08:29;5.78;;;2.70;;
72755;SDS011;60881;55.002;73.232;2022-07-22T08:11:00;8.05;;;2.97;;
72755;SDS011;60881;55.002;73.232;2022-07-22T08:14:16;6.32;;;2.67;;
72755;SDS011;60881;55.002;73.232;2022-07-22T08:17:01;9.57;;;2.92;;
72755;SDS011;60881;55.002;73.232;2022-07-22T08:19:32;7.40;;;2.80;;
72755;SDS011;60881;55.002;73.232;2022-07-22T08:21:59;4.30;;;2.88;;
72755;SDS011;60881;55.002;73.232;2022-07-22T08:24:29;6.50;;;2.88;;
72755;SDS011;60881;55.002;73.232;2022-07-22T08:26:59;7.95;;;2.78;;
72755;SDS011;60881;55.002;73.232;2022-07-22T08:29:25;11.23;;;3.10;;
72755;SDS011;60881;55.002;73.232;2022-07-22T08:31:53;5.20;;;2.72;;
72755;SDS011;60881;55.002;73.232;2022-07-22T08:34:20;7.20;;;3.15;;
72755;SDS011;60881;55.002;73.232;2022-07-22T08:36:47;8.07;;;2.42;;
72755;SDS011;60881;55.002;73.232;2022-07-22T08:39:14;12.57;;;2.78;;
72755;SDS011;60881;55.002;73.232;2022-07-22T08:41:41;10.52;;;2.70;;
72755;SDS011;60881;55.002;73.232;2022-07-22T08:44:09;10.98;;;2.97;;
72755;SDS011;60881;55.002;73.232;2022-07-22T08:46:36;8.02;;;2.70;;
72755;SDS011;60881;55.002;73.232;2022-07-22T08:49:18;16.23;;;2.95;;
72755;SDS011;60881;55.002;73.232;2022-07-22T08:52:01;9.77;;;2.20;;
72755;SDS011;60881;55.002;73.232;2022-07-22T08:54:35;10.18;;;2.15;;
72755;SDS011;60881;55.002;73.232;2022-07-22T08:57:04;6.07;;;2.28;;
72755;SDS011;60881;55.002;73.232;2022-07-22T08:59:30;10.30;;;2.50;;
72755;SDS011;60881;55.002;73.232;2022-07-22T09:02:09;5.75;;;2.38;;
72755;SDS011;60881;55.002;73.232;2022-07-22T09:04:56;7.65;;;2.60;;
72755;SDS011;60881;55.002;73.232;2022-07-22T09:07:35;3.28;;;2.30;;
72755;SDS011;60881;55.002;73.232;2022-07-22T09:10:10;11.77;;;2.88;;
72755;SDS011;60881;55.002;73.232;2022-07-22T09:13:11;11.27;;;3.50;;
72755;SDS011;60881;55.002;73.232;2022-07-22T09:15:46;13.73;;;3.90;;
72755;SDS011;60881;55.002;73.232;2022-07-22T09:18:52;18.98;;;4.20;;
72755;SDS011;60881;55.002;73.232;2022-07-22T09:21:40;12.65;;;3.78;;
72755;SDS011;60881;55.002;73.232;2022-07-22T09:24:31;6.03;;;3.38;;
72755;SDS011;60881;55.002;73.232;2022-07-22T09:27:25;12.10;;;3.00;;
72755;SDS011;60881;55.002;73.232;2022-07-22T09:30:25;10.00;;;2.72;;
72755;SDS011;60881;55.002;73.232;2022-07-22T09:33:12;15.73;;;3.30;;
72755;SDS011;60881;55.002;73.232;2022-07-22T09:35:44;6.28;;;2.63;;
72755;SDS011;60881;55.002;73.232;2022-07-22T09:38:12;11.93;;;2.50;;
72755;SDS011;60881;55.002;73.232;2022-07-22T09:40:42;10.50;;;2.80;;
72755;SDS011;60881;55.002;73.232;2022-07-22T09:43:10;8.18;;;2.72;;
72755;SDS011;60881;55.002;73.232;2022-07-22T09:45:47;10.45;;;2.70;;
72755;SDS011;60881;55.002;73.232;2022-07-22T09:48:26;9.40;;;2.17;;
72755;SDS011;60881;55.002;73.232;2022-07-22T09:51:11;10.10;;;2.45;;
72755;SDS011;60881;55.002;73.232;2022-07-22T09:53:59;10.18;;;2.88;;
72755;SDS011;60881;55.002;73.232;2022-07-22T09:56:31;9.93;;;2.72;;
72755;SDS011;60881;55.002;73.232;2022-07-22T09:58:58;10.48;;;3.03;;
72755;SDS011;60881;55.002;73.232;2022-07-22T10:01:30;9.85;;;3.28;;
72755;SDS011;60881;55.002;73.232;2022-07-22T10:03:58;17.63;;;2.85;;
72755;SDS011;60881;55.002;73.232;2022-07-22T10:06:27;19.45;;;3.38;;
72755;SDS011;60881;55.002;73.232;2022-07-22T10:08:54;8.80;;;3.10;;
72755;SDS011;60881;55.002;73.232;2022-07-22T10:11:21;8.25;;;3.08;;
72755;SDS011;60881;55.002;73.232;2022-07-22T10:13:48;13.95;;;3.30;;
72755;SDS011;60881;55.002;73.232;2022-07-22T10:16:15;9.90;;;3.00;;
72755;SDS011;60881;55.002;73.232;2022-07-22T10:18:44;14.73;;;3.55;;
72755;SDS011;60881;55.002;73.232;2022-07-22T10:21:13;14.63;;;3.38;;
72755;SDS011;60881;55.002;73.232;2022-07-22T10:26:50;9.68;;;2.80;;
72755;SDS011;60881;55.002;73.232;2022-07-22T10:29:26;12.30;;;3.40;;
72755;SDS011;60881;55.002;73.232;2022-07-22T10:40:09;8.48;;;3.00;;
72755;SDS011;60881;55.002;73.232;2022-07-22T10:45:42;12.02;;;2.80;;
72755;SDS011;60881;55.002;73.232;2022-07-22T10:48:16;6.93;;;2.80;;
72755;SDS011;60881;55.002;73.232;2022-07-22T10:50:46;8.63;;;2.78;;
72755;SDS011;60881;55.002;73.232;2022-07-22T10:53:19;6.47;;;2.88;;
72755;SDS011;60881;55.002;73.232;2022-07-22T10:55:57;10.57;;;4.00;;
72755;SDS011;60881;55.002;73.232;2022-07-22T10:58:41;12.00;;;3.30;;
72755;SDS011;60881;55.002;73.232;2022-07-22T11:01:17;8.43;;;3.00;;
72755;SDS011;60881;55.002;73.232;2022-07-22T11:03:47;10.57;;;2.80;;
72755;SDS011;60881;55.002;73.232;2022-07-22T11:06:26;11.00;;;3.08;;
72755;SDS011;60881;55.002;73.232;2022-07-22T11:14:16;8.82;;;2.63;;
72755;SDS011;60881;55.002;73.232;2022-07-22T11:17:07;8.50;;;2.75;;
72755;SDS011;60881;55.002;73.232;2022-07-22T11:19:46;6.13;;;2.40;;
72755;SDS011;60881;55.002;73.232;2022-07-22T11:22:16;12.32;;;3.20;;
72755;SDS011;60881;55.002;73.232;2022-07-22T11:24:47;8.73;;;2.80;;
72755;SDS011;60881;55.002;73.232;2022-07-22T11:27:17;13.13;;;2.90;;
72755;SDS011;60881;55.002;73.232;2022-07-22T11:29:47;6.65;;;2.72;;
72755;SDS011;60881;55.002;73.232;2022-07-22T11:32:16;7.40;;;2.70;;
72755;SDS011;60881;55.002;73.232;2022-07-22T11:34:44;7.93;;;2.63;;
72755;SDS011;60881;55.002;73.232;2022-07-22T11:37:12;13.95;;;3.08;;
72755;SDS011;60881;55.002;73.232;2022-07-22T11:39:41;10.10;;;3.25;;
72755;SDS011;60881;55.002;73.232;2022-07-22T11:42:07;9.30;;;3.10;;
72755;SDS011;60881;55.002;73.232;2022-07-22T11:44:39;15.90;;;2.95;;
72755;SDS011;60881;55.002;73.232;2022-07-22T11:47:07;10.45;;;3.22;;
72755;SDS011;60881;55.002;73.232;2022-07-22T11:49:36;8.30;;;2.92;;
72755;SDS011;60881;55.002;73.232;2022-07-22T11:52:13;10.90;;;3.28;;
72755;SDS011;60881;55.002;73.232;2022-07-22T11:54:40;13.27;;;3.38;;
72755;SDS011;60881;55.002;73.232;2022-07-22T11:57:08;16.55;;;3.50;;
72755;SDS011;60881;55.002;73.232;2022-07-22T11:59:35;7.50;;;3.10;;
72755;SDS011;60881;55.002;73.232;2022-07-22T12:02:12;6.80;;;3.05;;
72755;SDS011;60881;55.002;73.232;2022-07-22T12:04:39;12.55;;;2.78;;
72755;SDS011;60881;55.002;73.232;2022-07-22T12:07:06;11.07;;;2.80;;
72755;SDS011;60881;55.002;73.232;2022-07-22T12:09:34;15.60;;;3.05;;
72755;SDS011;60881;55.002;73.232;2022-07-22T12:12:03;16.70;;;2.97;;
72755;SDS011;60881;55.002;73.232;2022-07-22T12:14:31;6.50;;;3.05;;
72755;SDS011;60881;55.002;73.232;2022-07-22T12:17:06;13.43;;;3.40;;
72755;SDS011;60881;55.002;73.232;2022-07-22T12:19:39;14.13;;;3.28;;
72755;SDS011;60881;55.002;73.232;2022-07-22T12:22:11;5.93;;;3.00;;
72755;SDS011;60881;55.002;73.232;2022-07-22T12:24:45;16.65;;;3.80;;
72755;SDS011;60881;55.002;73.232;2022-07-22T12:27:22;13.65;;;3.75;;
72755;SDS011;60881;55.002;73.232;2022-07-22T12:29:49;19.17;;;4.20;;
72755;SDS011;60881;55.002;73.232;2022-07-22T12:32:27;14.57;;;3.13;;
72755;SDS011;60881;55.002;73.232;2022-07-22T12:37:46;13.20;;;3.10;;
72755;SDS011;60881;55.002;73.232;2022-07-22T12:42:44;11.05;;;3.00;;
72755;SDS011;60881;55.002;73.232;2022-07-22T12:45:13;12.15;;;3.10;;
72755;SDS011;60881;55.002;73.232;2022-07-22T12:55:30;15.32;;;3.67;;
72755;SDS011;60881;55.002;73.232;2022-07-22T12:58:00;13.10;;;3.00;;
72755;SDS011;60881;55.002;73.232;2022-07-22T13:00:40;11.00;;;3.13;;
72755;SDS011;60881;55.002;73.232;2022-07-22T13:03:09;16.55;;;2.97;;
72755;SDS011;60881;55.002;73.232;2022-07-22T13:05:36;5.75;;;2.55;;
72755;SDS011;60881;55.002;73.232;2022-07-22T13:08:04;10.88;;;2.67;;
72755;SDS011;60881;55.002;73.232;2022-07-22T13:10:32;15.68;;;2.90;;
72755;SDS011;60881;55.002;73.232;2022-07-22T13:12:59;15.48;;;3.47;;
72755;SDS011;60881;55.002;73.232;2022-07-22T13:15:27;15.70;;;3.40;;
72755;SDS011;60881;55.002;73.232;2022-07-22T13:17:54;13.98;;;3.78;;
72755;SDS011;60881;55.002;73.232;2022-07-22T13:20:23;14.10;;;3.15;;
72755;SDS011;60881;55.002;73.232;2022-07-22T13:22:51;9.75;;;3.47;;
72755;SDS011;60881;55.002;73.232;2022-07-22T13:25:17;18.58;;;3.35;;
72755;SDS011;60881;55.002;73.232;2022-07-22T13:27:44;12.45;;;2.60;;
72755;SDS011;60881;55.002;73.232;2022-07-22T13:30:18;7.43;;;2.60;;
72755;SDS011;60881;55.002;73.232;2022-07-22T13:32:44;16.60;;;2.67;;
72755;SDS011;60881;55.002;73.232;2022-07-22T13:35:11;12.52;;;3.40;;
72755;SDS011;60881;55.002;73.232;2022-07-22T13:37:38;6.70;;;2.75;;
72755;SDS011;60881;55.002;73.232;2022-07-22T13:40:06;9.30;;;3.03;;
72755;SDS011;60881;55.002;73.232;2022-07-22T13:42:35;13.20;;;2.95;;
72755;SDS011;60881;55.002;73.232;2022-07-22T13:45:06;8.23;;;3.10;;
72755;SDS011;60881;55.002;73.232;2022-07-22T13:47:35;15.18;;;3.90;;
72755;SDS011;60881;55.002;73.232;2022-07-22T13:50:09;7.73;;;3.73;;
72755;SDS011;60881;55.002;73.232;2022-07-22T13:52:35;8.05;;;3.60;;
72755;SDS011;60881;55.002;73.232;2022-07-22T13:55:03;7.53;;;3.08;;
72755;SDS011;60881;55.002;73.232;2022-07-22T13:57:35;12.93;;;2.85;;
72755;SDS011;60881;55.002;73.232;2022-07-22T14:00:03;23.98;;;3.70;;
72755;SDS011;60881;55.002;73.232;2022-07-22T14:02:32;6.95;;;2.97;;
72755;SDS011;60881;55.002;73.232;2022-07-22T14:05:05;10.38;;;3.22;;
72755;SDS011;60881;55.002;73.232;2022-07-22T14:07:31;17.50;;;3.53;;
72755;SDS011;60881;55.002;73.232;2022-07-22T14:10:03;11.43;;;3.75;;
72755;SDS011;60881;55.002;73.232;2022-07-22T14:12:30;10.32;;;2.90;;
72755;SDS011;60881;55.002;73.232;2022-07-22T14:14:56;10.23;;;2.80;;
72755;SDS011;60881;55.002;73.232;2022-07-22T14:17:24;16.88;;;2.97;;
72755;SDS011;60881;55.002;73.232;2022-07-22T14:19:51;10.13;;;2.80;;
72755;SDS011;60881;55.002;73.232;2022-07-22T14:22:17;5.95;;;3.17;;
72755;SDS011;60881;55.002;73.232;2022-07-22T14:24:44;6.90;;;3.20;;
72755;SDS011;60881;55.002;73.232;2022-07-22T14:27:11;10.10;;;3.40;;
72755;SDS011;60881;55.002;73.232;2022-07-22T14:29:39;8.10;;;2.90;;
72755;SDS011;60881;55.002;73.232;2022-07-22T14:32:05;8.07;;;3.15;;
72755;SDS011;60881;55.002;73.232;2022-07-22T14:34:33;17.40;;;3.60;;
72755;SDS011;60881;55.002;73.232;2022-07-22T14:37:00;12.75;;;3.75;;
72755;SDS011;60881;55.002;73.232;2022-07-22T14:39:27;14.90;;;4.05;;
72755;SDS011;60881;55.002;73.232;2022-07-22T14:41:54;16.67;;;7.38;;
72755;SDS011;60881;55.002;73.232;2022-07-22T14:44:21;15.20;;;7.43;;
72755;SDS011;60881;55.002;73.232;2022-07-22T14:46:48;19.17;;;5.72;;
72755;SDS011;60881;55.002;73.232;2022-07-22T14:49:16;12.95;;;6.18;;
72755;SDS011;60881;55.002;73.232;2022-07-22T14:51:43;22.35;;;8.35;;
72755;SDS011;60881;55.002;73.232;2022-07-22T14:54:09;32.95;;;12.02;;
72755;SDS011;60881;55.002;73.232;2022-07-22T14:56:37;24.40;;;8.35;;
72755;SDS011;60881;55.002;73.232;2022-07-22T14:59:05;17.33;;;5.65;;
72755;SDS011;60881;55.002;73.232;2022-07-22T15:01:32;17.55;;;4.20;;
72755;SDS011;60881;55.002;73.232;2022-07-22T15:03:59;9.90;;;3.22;;
72755;SDS011;60881;55.002;73.232;2022-07-22T15:06:26;5.78;;;2.70;;
72755;SDS011;60881;55.002;73.232;2022-07-22T15:08:53;10.52;;;2.50;;
72755;SDS011;60881;55.002;73.232;2022-07-22T15:11:24;6.13;;;2.67;;
72755;SDS011;60881;55.002;73.232;2022-07-22T15:13:51;9.00;;;2.38;;
72755;SDS011;60881;55.002;73.232;2022-07-22T15:16:18;6.68;;;2.70;;
72755;SDS011;60881;55.002;73.232;2022-07-22T15:18:44;14.23;;;3.35;;